Time;durP1;ratioP1;P1;durP2;ratioP2;P2;SDS_P1;SDS_P2;PMS_P1;PMS_P2;Temp;Humidity;BMP_temperature;BMP_pressure;BME280_temperature;BME280_humidity;BME280_pressure;Samples;Min_cycle;Max_cycle;Signal;HPM_P1;HPM_P2
2023/12/18 00:00:32;;;;;;;18.15;14.07;;;7.30;99.90;;;;;;4264766;27;20046;-61
2023/12/18 00:02:34;;;;;;;19.90;14.93;;;7.30;99.90;;;;;;4264445;27;20046;-61
2023/12/18 00:04:36;;;;;;;18.95;15.25;;;7.00;99.90;;;;;;4264097;27;20042;-60
2023/12/18 00:06:38;;;;;;;22.50;15.70;;;7.00;99.90;;;;;;4264635;27;20043;-61
2023/12/18 00:08:40;;;;;;;19.75;14.73;;;7.00;99.90;;;;;;4264352;27;20042;-61
2023/12/18 00:10:42;;;;;;;20.70;15.40;;;7.00;99.90;;;;;;4264400;27;20047;-61
2023/12/18 00:12:44;;;;;;;20.67;15.57;;;6.90;99.90;;;;;;4264549;27;20126;-61
2023/12/18 00:14:46;;;;;;;17.98;14.05;;;6.80;99.90;;;;;;4264709;27;20039;-60
2023/12/18 00:16:50;;;;;;;16.58;12.68;;;6.80;99.90;;;;;;4267893;27;20043;-61
2023/12/18 00:18:51;;;;;;;20.17;15.25;;;6.90;99.90;;;;;;4267340;27;20047;-61
2023/12/18 00:20:54;;;;;;;17.45;13.85;;;6.90;99.90;;;;;;4267573;27;20076;-60
2023/12/18 00:22:56;;;;;;;20.27;15.88;;;7.00;99.90;;;;;;4268050;27;20051;-61
2023/12/18 00:24:58;;;;;;;20.15;14.95;;;7.00;99.90;;;;;;4268478;27;20042;-61
2023/12/18 00:27:00;;;;;;;17.58;13.60;;;6.70;99.90;;;;;;4268894;27;20520;-61
2023/12/18 00:29:03;;;;;;;20.08;14.98;;;6.70;99.90;;;;;;4267647;27;20047;-61
2023/12/18 00:31:05;;;;;;;20.58;14.85;;;6.60;99.90;;;;;;4267566;27;20043;-63
2023/12/18 00:33:08;;;;;;;18.85;14.60;;;6.70;99.90;;;;;;4267952;27;20546;-61
2023/12/18 00:35:11;;;;;;;16.10;13.65;;;6.60;99.90;;;;;;4266904;27;20042;-60
2023/12/18 00:37:13;;;;;;;22.40;14.48;;;6.60;99.90;;;;;;4267095;27;20062;-61
2023/12/18 00:39:17;;;;;;;18.77;14.05;;;6.60;99.90;;;;;;4267244;27;20039;-61
2023/12/18 00:41:20;;;;;;;18.35;14.50;;;6.70;99.90;;;;;;4267439;27;20402;-61
2023/12/18 00:43:22;;;;;;;17.05;13.68;;;6.70;99.90;;;;;;4267196;27;20043;-60
2023/12/18 00:45:23;;;;;;;17.08;13.18;;;6.80;99.90;;;;;;4267091;27;20118;-61
2023/12/18 00:47:27;;;;;;;17.23;13.10;;;6.80;99.90;;;;;;4267128;27;20450;-61
2023/12/18 00:49:32;;;;;;;20.33;16.02;;;6.90;99.90;;;;;;4267171;27;20050;-61
2023/12/18 00:51:35;;;;;;;19.30;14.90;;;6.90;99.90;;;;;;4267578;27;20489;-61
2023/12/18 00:53:37;;;;;;;17.88;14.95;;;6.90;99.90;;;;;;4249012;27;20043;-60
2023/12/18 00:55:39;;;;;;;17.52;13.80;;;6.90;99.90;;;;;;4267829;27;20382;-60
2023/12/18 00:57:41;;;;;;;19.80;15.52;;;6.80;99.90;;;;;;4267553;27;20339;-61
2023/12/18 00:59:43;;;;;;;15.70;12.30;;;6.90;99.90;;;;;;4266970;27;20058;-61
2023/12/18 01:01:45;;;;;;;16.50;12.25;;;7.00;99.90;;;;;;4266961;27;20126;-61
2023/12/18 01:03:47;;;;;;;16.42;12.00;;;7.20;99.90;;;;;;4266310;27;20042;-61
2023/12/18 01:05:51;;;;;;;16.02;12.25;;;7.20;99.90;;;;;;4266814;27;20043;-61
2023/12/18 01:07:53;;;;;;;14.93;11.65;;;7.20;99.90;;;;;;4266821;27;20047;-61
2023/12/18 01:09:58;;;;;;;14.85;12.80;;;7.20;99.90;;;;;;4266634;27;20051;-60
2023/12/18 01:12:00;;;;;;;16.55;13.27;;;7.20;99.90;;;;;;4266964;27;20085;-61
2023/12/18 01:14:02;;;;;;;16.30;12.82;;;7.10;99.90;;;;;;4266820;27;20043;-60
2023/12/18 01:16:04;;;;;;;15.15;12.48;;;6.90;99.90;;;;;;4266579;27;20090;-61
2023/12/18 01:18:07;;;;;;;14.25;11.73;;;6.70;99.90;;;;;;4266432;27;20473;-61
2023/12/18 01:20:10;;;;;;;16.98;11.25;;;6.80;99.90;;;;;;4266346;27;20073;-61
2023/12/18 01:22:13;;;;;;;16.48;12.00;;;7.00;99.90;;;;;;4248142;27;20043;-60
2023/12/18 01:24:16;;;;;;;13.10;11.05;;;7.00;99.90;;;;;;4266505;27;20353;-60
2023/12/18 01:26:18;;;;;;;13.75;10.48;;;7.10;99.90;;;;;;4265595;27;20051;-61
2023/12/18 01:28:20;;;;;;;14.18;11.18;;;7.10;99.90;;;;;;4266101;27;20386;-60
2023/12/18 01:30:22;;;;;;;15.80;11.98;;;7.10;99.90;;;;;;4266453;27;20066;-60
2023/12/18 01:32:24;;;;;;;12.63;10.80;;;7.00;99.90;;;;;;4266165;27;20129;-60
2023/12/18 01:34:26;;;;;;;12.65;10.23;;;7.10;99.90;;;;;;4266246;27;20134;-61
2023/12/18 01:36:28;;;;;;;14.68;11.32;;;7.10;99.90;;;;;;4266293;27;20062;-60
2023/12/18 01:38:32;;;;;;;16.55;12.73;;;7.00;99.90;;;;;;4266316;27;20042;-60
2023/12/18 01:40:34;;;;;;;13.98;11.35;;;7.10;99.90;;;;;;4266510;27;20134;-61
2023/12/18 01:42:37;;;;;;;14.90;11.05;;;7.00;99.90;;;;;;4248028;27;20485;-60
2023/12/18 01:44:39;;;;;;;13.70;11.25;;;6.90;99.90;;;;;;4266319;27;20043;-60
2023/12/18 01:46:41;;;;;;;13.55;11.30;;;7.00;99.90;;;;;;4266078;27;20049;-60
2023/12/18 01:48:43;;;;;;;13.63;11.00;;;7.00;99.90;;;;;;4249809;27;20106;-60
2023/12/18 01:50:46;;;;;;;13.18;10.70;;;7.00;99.90;;;;;;4269290;27;20065;-62
2023/12/18 01:52:48;;;;;;;15.15;11.68;;;6.90;99.90;;;;;;4269039;27;20087;-66
2023/12/18 01:54:52;;;;;;;15.30;11.63;;;7.00;99.90;;;;;;4268175;27;20039;-64
2023/12/18 01:56:55;;;;;;;15.80;11.75;;;7.00;99.90;;;;;;4268011;27;20046;-62
2023/12/18 01:58:59;;;;;;;17.90;11.50;;;6.90;99.90;;;;;;4267470;27;20610;-61
2023/12/18 02:01:01;;;;;;;13.90;10.52;;;6.90;99.90;;;;;;4267319;27;20381;-61
2023/12/18 02:03:05;;;;;;;13.75;10.90;;;7.00;99.90;;;;;;4267711;27;20126;-61
2023/12/18 02:05:07;;;;;;;12.57;10.43;;;6.90;99.90;;;;;;4266857;27;20091;-61
2023/12/18 02:07:11;;;;;;;12.27;9.55;;;7.00;99.90;;;;;;4265976;27;20439;-61
2023/12/18 02:09:15;;;;;;;11.55;10.20;;;7.00;99.90;;;;;;4265936;27;20349;-60
2023/12/18 02:11:19;;;;;;;11.18;9.20;;;6.90;99.90;;;;;;4265820;27;20047;-61
2023/12/18 02:13:21;;;;;;;12.32;9.43;;;6.90;99.90;;;;;;4265884;27;20426;-62
2023/12/18 02:15:23;;;;;;;11.80;9.77;;;7.00;99.90;;;;;;4265351;27;20409;-61
2023/12/18 02:17:25;;;;;;;10.32;8.55;;;7.00;99.90;;;;;;4265511;27;20208;-61
2023/12/18 02:19:29;;;;;;;13.00;9.63;;;7.10;99.90;;;;;;4265619;27;20077;-60
2023/12/18 02:21:31;;;;;;;10.10;8.40;;;7.00;99.90;;;;;;4247172;27;20093;-61
2023/12/18 02:23:34;;;;;;;14.18;10.30;;;7.10;99.90;;;;;;4265837;27;20542;-63
2023/12/18 02:25:37;;;;;;;10.80;9.65;;;6.70;99.90;;;;;;4265624;27;20070;-61
2023/12/18 02:27:39;;;;;;;12.60;9.57;;;6.80;99.90;;;;;;4247154;27;20047;-61
2023/12/18 02:29:42;;;;;;;12.50;10.23;;;7.00;99.90;;;;;;4265385;27;20062;-60
2023/12/18 02:31:44;;;;;;;14.70;11.75;;;6.90;99.90;;;;;;4265342;27;20049;-60
2023/12/18 02:33:48;;;;;;;13.15;10.98;;;6.90;99.90;;;;;;4247164;27;20054;-60
2023/12/18 02:35:52;;;;;;;13.00;10.68;;;6.90;99.90;;;;;;4265199;27;20059;-61
2023/12/18 02:37:54;;;;;;;12.23;9.48;;;6.90;99.90;;;;;;4265202;27;20069;-60
2023/12/18 02:39:57;;;;;;;15.10;10.05;;;6.80;99.90;;;;;;4265238;27;20074;-60
2023/12/18 02:41:59;;;;;;;12.77;10.27;;;6.80;99.90;;;;;;4265450;27;20043;-60
2023/12/18 02:44:01;;;;;;;12.52;9.35;;;6.70;99.90;;;;;;4265106;27;20546;-60
2023/12/18 02:46:04;;;;;;;11.68;9.38;;;6.70;99.90;;;;;;4265548;27;20073;-61
2023/12/18 02:48:06;;;;;;;11.98;9.70;;;6.80;99.90;;;;;;4265366;27;20066;-60
2023/12/18 02:50:09;;;;;;;14.05;10.50;;;6.50;99.90;;;;;;4265277;27;20049;-61
2023/12/18 02:52:11;;;;;;;11.05;9.13;;;6.50;99.90;;;;;;4265275;27;20042;-61
2023/12/18 02:54:13;;;;;;;11.00;9.00;;;6.60;99.90;;;;;;4265691;27;20083;-61
2023/12/18 02:56:16;;;;;;;10.77;8.82;;;6.60;99.90;;;;;;4264944;27;20089;-62
2023/12/18 02:58:20;;;;;;;10.88;9.00;;;6.70;99.90;;;;;;4264931;27;20046;-61
2023/12/18 03:00:23;;;;;;;9.93;8.38;;;6.70;99.90;;;;;;4264893;27;20088;-61
2023/12/18 03:02:25;;;;;;;11.10;9.52;;;6.70;99.90;;;;;;4265092;27;20046;-61
2023/12/18 03:04:27;;;;;;;10.40;8.13;;;6.70;99.90;;;;;;4265013;27;20074;-60
2023/12/18 03:06:29;;;;;;;12.52;10.00;;;6.70;99.90;;;;;;4265168;27;20043;-61
2023/12/18 03:08:31;;;;;;;13.20;9.75;;;6.60;99.90;;;;;;4264916;27;20092;-61
2023/12/18 03:10:34;;;;;;;11.73;9.52;;;6.70;99.90;;;;;;4264924;27;20039;-61
2023/12/18 03:12:37;;;;;;;12.15;9.52;;;6.70;99.90;;;;;;4265034;27;20382;-61
2023/12/18 03:14:39;;;;;;;11.75;9.30;;;6.90;99.90;;;;;;4264437;27;20391;-61
2023/12/18 03:16:41;;;;;;;10.40;9.10;;;7.00;99.90;;;;;;4265041;27;20469;-61
2023/12/18 03:18:43;;;;;;;12.98;9.60;;;6.90;99.90;;;;;;4264792;27;20043;-61
2023/12/18 03:20:45;;;;;;;13.82;10.90;;;6.80;99.90;;;;;;4264932;27;20091;-61
2023/12/18 03:22:48;;;;;;;13.77;10.80;;;6.60;99.90;;;;;;4265073;27;20087;-61
2023/12/18 03:24:50;;;;;;;12.85;10.43;;;6.60;99.90;;;;;;4265173;27;20050;-62
2023/12/18 03:26:52;;;;;;;11.60;9.68;;;6.70;99.90;;;;;;4265553;27;20042;-61
2023/12/18 03:28:55;;;;;;;12.20;9.88;;;6.60;99.90;;;;;;4264872;27;20043;-63
2023/12/18 03:30:57;;;;;;;10.75;8.52;;;6.50;99.90;;;;;;4265014;27;20122;-61
2023/12/18 03:33:00;;;;;;;9.80;7.90;;;6.60;99.90;;;;;;4265077;27;20043;-61
2023/12/18 03:35:02;;;;;;;11.50;9.98;;;6.60;99.90;;;;;;4264785;27;20111;-63
2023/12/18 03:37:04;;;;;;;11.90;10.02;;;6.60;99.90;;;;;;4232621;28;20052;-61
2023/12/18 03:39:06;;;;;;;11.77;9.63;;;6.80;99.90;;;;;;4230737;28;20048;-61
2023/12/18 03:41:09;;;;;;;11.77;10.48;;;6.70;99.90;;;;;;4230417;28;20052;-61
2023/12/18 03:43:11;;;;;;;10.38;9.23;;;6.60;99.90;;;;;;4230314;28;20126;-61
2023/12/18 03:45:15;;;;;;;11.88;10.05;;;6.60;99.90;;;;;;4230620;28;20406;-61
2023/12/18 03:47:17;;;;;;;10.48;8.88;;;6.70;99.90;;;;;;4230842;28;20128;-60
2023/12/18 03:49:19;;;;;;;12.98;9.93;;;6.80;99.90;;;;;;4230790;28;20501;-61
2023/12/18 03:51:21;;;;;;;12.48;10.25;;;6.60;99.90;;;;;;4233609;28;20050;-61
2023/12/18 03:53:23;;;;;;;11.55;9.13;;;6.30;99.90;;;;;;4233702;28;20092;-61
2023/12/18 03:55:25;;;;;;;11.45;9.98;;;6.40;99.90;;;;;;4233057;28;20043;-60
2023/12/18 03:57:28;;;;;;;12.02;9.32;;;6.50;99.90;;;;;;4233689;28;20466;-60
2023/12/18 03:59:30;;;;;;;13.60;10.70;;;6.60;99.90;;;;;;4233643;28;20080;-61
2023/12/18 04:01:33;;;;;;;12.98;10.88;;;6.70;99.90;;;;;;4234581;27;20470;-61
2023/12/18 04:03:36;;;;;;;11.70;8.77;;;6.70;99.90;;;;;;4234961;28;20407;-60
2023/12/18 04:05:38;;;;;;;11.98;8.93;;;6.60;99.90;;;;;;4234769;28;20418;-61
2023/12/18 04:07:40;;;;;;;13.50;9.88;;;6.70;99.90;;;;;;4233913;28;20043;-60
2023/12/18 04:09:43;;;;;;;12.40;10.85;;;6.80;99.90;;;;;;4233681;28;20044;-61
2023/12/18 04:11:45;;;;;;;14.05;10.85;;;6.70;99.90;;;;;;4233377;28;20135;-60
2023/12/18 04:13:47;;;;;;;14.43;10.35;;;6.60;99.90;;;;;;4233830;28;20040;-61
2023/12/18 04:15:49;;;;;;;14.30;11.50;;;6.60;99.90;;;;;;4233454;28;20134;-61
2023/12/18 04:17:55;;;;;;;11.38;9.48;;;6.80;99.90;;;;;;4235055;28;20484;-61
2023/12/18 04:19:57;;;;;;;12.98;10.60;;;6.70;99.90;;;;;;4235262;28;20055;-60
2023/12/18 04:21:59;;;;;;;12.20;10.45;;;6.70;99.90;;;;;;4236024;28;20067;-66
2023/12/18 04:24:01;;;;;;;14.05;11.18;;;6.70;99.90;;;;;;4235509;28;20521;-65
2023/12/18 04:26:04;;;;;;;11.63;9.65;;;6.50;99.90;;;;;;4234011;27;20429;-60
2023/12/18 04:28:06;;;;;;;13.75;11.30;;;6.60;99.90;;;;;;4233825;28;20056;-61
2023/12/18 04:30:09;;;;;;;13.05;10.65;;;6.70;99.90;;;;;;4233678;28;20437;-61
2023/12/18 04:32:11;;;;;;;12.55;10.68;;;6.60;99.90;;;;;;4233989;28;20048;-61
2023/12/18 04:34:14;;;;;;;15.23;11.93;;;6.40;99.90;;;;;;4233546;28;20051;-61
2023/12/18 04:36:16;;;;;;;16.35;12.15;;;6.30;99.90;;;;;;4246783;27;20063;-60
2023/12/18 04:38:18;;;;;;;14.07;11.35;;;6.20;99.90;;;;;;4267539;27;20042;-60
2023/12/18 04:40:20;;;;;;;15.38;11.77;;;6.30;99.90;;;;;;4267214;27;20503;-60
2023/12/18 04:42:22;;;;;;;12.85;10.07;;;6.30;99.90;;;;;;4267288;27;20118;-60
2023/12/18 04:44:25;;;;;;;14.15;11.98;;;6.30;99.90;;;;;;4267378;27;20473;-60
2023/12/18 04:46:27;;;;;;;12.55;10.18;;;6.20;99.90;;;;;;4267464;27;20047;-60
2023/12/18 04:48:29;;;;;;;12.75;10.75;;;6.10;99.90;;;;;;4267290;27;20050;-60
2023/12/18 04:50:33;;;;;;;13.25;10.18;;;6.10;99.90;;;;;;4267319;27;20043;-60
2023/12/18 04:52:35;;;;;;;14.00;11.32;;;6.10;99.90;;;;;;4267156;27;20050;-60
2023/12/18 04:54:37;;;;;;;13.57;11.60;;;6.10;99.90;;;;;;4266637;27;20047;-62
2023/12/18 04:56:39;;;;;;;14.63;11.48;;;6.30;99.90;;;;;;4266972;27;20047;-60
2023/12/18 04:58:41;;;;;;;12.23;9.85;;;6.20;99.90;;;;;;4266951;27;20043;-61
2023/12/18 05:00:43;;;;;;;14.65;10.80;;;6.10;99.90;;;;;;4266698;27;20043;-61
2023/12/18 05:02:47;;;;;;;15.88;11.30;;;6.00;99.90;;;;;;4267706;27;20046;-61
2023/12/18 05:04:49;;;;;;;13.95;10.82;;;6.30;99.90;;;;;;4268768;27;20053;-65
2023/12/18 05:06:52;;;;;;;11.43;9.75;;;6.50;99.90;;;;;;4268936;27;20544;-61
2023/12/18 05:08:55;;;;;;;16.67;12.07;;;6.70;99.90;;;;;;4266788;27;20053;-61
2023/12/18 05:10:57;;;;;;;15.57;12.63;;;6.60;99.90;;;;;;4267204;27;20483;-61
2023/12/18 05:12:59;;;;;;;13.75;11.13;;;6.50;99.90;;;;;;4266953;27;20094;-61
2023/12/18 05:15:01;;;;;;;13.70;11.10;;;6.50;99.90;;;;;;4266680;27;20401;-61
2023/12/18 05:17:06;;;;;;;15.77;12.10;;;6.50;99.90;;;;;;4266737;27;20545;-60
2023/12/18 05:19:08;;;;;;;16.85;13.27;;;6.50;99.90;;;;;;4266383;27;20053;-60
2023/12/18 05:21:10;;;;;;;11.43;9.65;;;6.50;99.90;;;;;;4266464;27;20469;-60
2023/12/18 05:23:14;;;;;;;13.60;11.07;;;6.50;99.90;;;;;;4266743;27;20092;-61
2023/12/18 05:25:16;;;;;;;14.52;11.85;;;6.60;99.90;;;;;;4266148;27;20046;-60
2023/12/18 05:27:20;;;;;;;12.73;10.20;;;6.60;99.90;;;;;;4248690;27;20047;-63
2023/12/18 05:29:22;;;;;;;12.87;10.40;;;6.80;99.90;;;;;;4268240;27;20099;-61
2023/12/18 05:31:24;;;;;;;15.48;12.68;;;6.90;99.90;;;;;;4267980;27;20095;-61
2023/12/18 05:33:26;;;;;;;15.60;11.90;;;6.80;99.90;;;;;;4266817;27;20047;-60
2023/12/18 05:35:28;;;;;;;17.13;13.10;;;6.70;99.90;;;;;;4266221;27;20096;-63
2023/12/18 05:37:30;;;;;;;14.98;12.15;;;6.60;99.90;;;;;;4266539;27;20086;-61
2023/12/18 05:39:34;;;;;;;14.93;11.68;;;6.40;99.90;;;;;;4265806;27;20077;-60
2023/12/18 05:41:36;;;;;;;16.50;12.15;;;6.40;99.90;;;;;;4266199;27;20039;-61
2023/12/18 05:43:38;;;;;;;15.30;11.88;;;6.50;99.90;;;;;;4266308;27;20062;-60
2023/12/18 05:45:40;;;;;;;13.35;11.18;;;6.50;99.90;;;;;;4266241;27;20388;-60
2023/12/18 05:47:42;;;;;;;15.02;10.88;;;6.60;99.90;;;;;;4266137;27;20049;-60
2023/12/18 05:49:44;;;;;;;14.05;10.85;;;6.60;99.90;;;;;;4266174;27;20093;-61
2023/12/18 05:51:46;;;;;;;14.43;12.18;;;6.60;99.90;;;;;;4266129;27;20057;-61
2023/12/18 05:53:49;;;;;;;13.98;11.25;;;6.70;99.90;;;;;;4265574;27;20042;-61
2023/12/18 05:55:52;;;;;;;15.05;11.70;;;6.80;99.90;;;;;;4266059;27;20057;-60
2023/12/18 05:57:54;;;;;;;15.68;12.40;;;6.80;99.90;;;;;;4265799;27;20087;-61
2023/12/18 05:59:56;;;;;;;14.82;10.20;;;6.70;99.90;;;;;;4265909;27;20095;-61
2023/12/18 06:01:58;;;;;;;14.27;10.95;;;6.70;99.90;;;;;;4265628;27;20126;-60
2023/12/18 06:04:00;;;;;;;17.85;11.50;;;6.70;99.90;;;;;;4265989;27;20043;-61
2023/12/18 06:06:03;;;;;;;15.02;11.85;;;6.80;99.90;;;;;;4265673;27;20042;-61
2023/12/18 06:08:06;;;;;;;14.05;12.25;;;6.70;99.90;;;;;;4266773;27;20122;-60
2023/12/18 06:10:08;;;;;;;13.50;11.13;;;6.60;99.90;;;;;;4267196;27;20070;-61
2023/12/18 06:12:12;;;;;;;12.75;10.77;;;6.70;99.90;;;;;;4247111;27;20089;-60
2023/12/18 06:14:14;;;;;;;13.48;11.27;;;6.40;99.90;;;;;;4265611;27;20047;-61
2023/12/18 06:16:16;;;;;;;15.70;12.10;;;6.40;99.90;;;;;;4265841;27;20047;-60
2023/12/18 06:18:19;;;;;;;13.85;10.35;;;6.20;99.90;;;;;;4266089;27;20458;-61
2023/12/18 06:20:21;;;;;;;13.52;10.90;;;6.30;99.90;;;;;;4265912;27;20050;-60
2023/12/18 06:22:24;;;;;;;12.98;10.93;;;6.30;99.90;;;;;;4265525;27;20078;-60
2023/12/18 06:24:26;;;;;;;11.60;9.30;;;6.40;99.90;;;;;;4265758;27;20043;-61
2023/12/18 06:26:29;;;;;;;12.75;10.05;;;6.40;99.90;;;;;;4265723;27;20046;-61
2023/12/18 06:28:32;;;;;;;12.07;9.75;;;6.30;99.90;;;;;;4265440;27;20045;-61
2023/12/18 06:30:34;;;;;;;15.15;10.52;;;6.40;99.90;;;;;;4265643;27;20074;-61
2023/12/18 06:32:36;;;;;;;13.35;10.75;;;6.30;99.90;;;;;;4265400;27;20047;-61
2023/12/18 06:34:39;;;;;;;21.42;11.77;;;6.30;99.90;;;;;;4265360;27;20146;-61
2023/12/18 06:36:43;;;;;;;12.73;10.05;;;6.20;99.90;;;;;;4264409;27;20047;-60
2023/12/18 06:38:45;;;;;;;19.05;11.52;;;6.20;99.90;;;;;;4265627;27;20074;-60
2023/12/18 06:40:48;;;;;;;18.17;11.50;;;6.20;99.90;;;;;;4247316;27;20047;-60
2023/12/18 06:42:50;;;;;;;15.93;11.77;;;6.20;99.90;;;;;;4265570;27;20047;-60
2023/12/18 06:44:53;;;;;;;13.50;10.18;;;6.20;99.90;;;;;;4266882;27;20046;-61
2023/12/18 06:46:55;;;;;;;13.18;10.65;;;6.20;99.90;;;;;;4267382;27;20047;-61
2023/12/18 06:48:57;;;;;;;13.70;10.60;;;6.20;99.90;;;;;;4265378;27;20493;-60
2023/12/18 06:50:59;;;;;;;12.30;10.32;;;6.20;99.90;;;;;;4264855;27;20049;-60
2023/12/18 06:53:02;;;;;;;12.98;9.88;;;6.20;99.90;;;;;;4265140;27;20047;-60
2023/12/18 06:55:05;;;;;;;12.32;10.32;;;6.30;99.90;;;;;;4265186;27;20118;-61
2023/12/18 06:57:07;;;;;;;15.55;11.50;;;6.50;99.90;;;;;;4246782;27;20493;-60
2023/12/18 06:59:10;;;;;;;11.52;9.13;;;6.30;99.90;;;;;;4265318;27;20474;-59
2023/12/18 07:01:15;;;;;;;14.63;10.88;;;6.30;99.90;;;;;;4265172;27;20046;-59
2023/12/18 07:03:18;;;;;;;14.02;11.13;;;6.10;99.90;;;;;;4265108;27;20057;-61
2023/12/18 07:05:21;;;;;;;14.15;10.63;;;5.90;99.90;;;;;;4264896;27;20045;-60
2023/12/18 07:07:23;;;;;;;13.27;10.50;;;5.90;99.90;;;;;;4264975;27;20405;-60
2023/12/18 07:09:26;;;;;;;12.48;10.38;;;6.10;99.90;;;;;;4265120;27;20043;-60
2023/12/18 07:11:28;;;;;;;13.90;11.60;;;6.20;99.90;;;;;;4264848;27;20054;-61
2023/12/18 07:13:30;;;;;;;12.38;9.95;;;6.20;99.90;;;;;;4265001;27;20073;-61
2023/12/18 07:15:32;;;;;;;13.77;10.00;;;6.00;99.90;;;;;;4264849;27;20039;-60
2023/12/18 07:17:35;;;;;;;10.48;8.57;;;5.80;99.90;;;;;;4265080;27;20047;-60
2023/12/18 07:19:41;;;;;;;13.93;10.50;;;6.20;99.90;;;;;;4264650;27;20043;-60
2023/12/18 07:21:44;;;;;;;10.30;8.88;;;6.10;99.90;;;;;;4264728;27;20042;-60
2023/12/18 07:23:46;;;;;;;14.05;10.27;;;6.30;99.90;;;;;;4264740;27;20039;-60
2023/12/18 07:25:48;;;;;;;13.50;10.48;;;6.30;99.90;;;;;;4266966;27;20043;-60
2023/12/18 07:27:53;;;;;;;11.82;9.50;;;6.20;99.90;;;;;;4268526;27;20405;-60
2023/12/18 07:29:55;;;;;;;12.25;9.70;;;6.30;99.90;;;;;;4268203;27;20050;-60
2023/12/18 07:31:57;;;;;;;13.70;10.02;;;6.20;99.90;;;;;;4268491;27;20524;-60
2023/12/18 07:34:01;;;;;;;12.48;9.90;;;6.30;99.90;;;;;;4268100;27;20059;-60
2023/12/18 07:36:04;;;;;;;15.95;10.70;;;6.40;99.90;;;;;;4268091;27;20055;-60
2023/12/18 07:38:06;;;;;;;15.82;11.20;;;6.40;99.90;;;;;;4268434;27;20053;-60
2023/12/18 07:40:08;;;;;;;18.05;9.95;;;6.30;99.90;;;;;;4268215;27;20050;-60
2023/12/18 07:42:11;;;;;;;17.05;12.30;;;6.50;99.90;;;;;;4270440;27;20042;-66
2023/12/18 07:44:13;;;;;;;14.82;11.30;;;6.40;99.90;;;;;;4269852;27;20043;-63
2023/12/18 07:46:19;;;;;;;16.73;12.20;;;6.20;99.90;;;;;;4268427;27;20038;-61
2023/12/18 07:48:24;;;;;;;14.38;11.48;;;6.20;99.90;;;;;;4268007;27;20046;-61
2023/12/18 07:50:28;;;;;;;14.75;11.80;;;6.20;99.90;;;;;;4268322;27;20043;-61
2023/12/18 07:52:30;;;;;;;15.82;10.98;;;6.20;99.90;;;;;;4267719;27;20043;-60
2023/12/18 07:54:32;;;;;;;15.20;12.18;;;6.30;99.90;;;;;;4268034;27;20047;-61
2023/12/18 07:56:34;;;;;;;16.88;12.77;;;6.30;99.90;;;;;;4268234;27;20043;-60
2023/12/18 07:58:36;;;;;;;18.00;12.30;;;6.30;99.90;;;;;;4267977;27;20125;-61
2023/12/18 08:00:38;;;;;;;16.02;12.18;;;6.30;99.90;;;;;;4268051;27;20057;-61
2023/12/18 08:02:41;;;;;;;17.83;12.55;;;6.10;99.90;;;;;;4267699;27;20100;-61
2023/12/18 08:04:44;;;;;;;16.98;12.20;;;6.10;99.90;;;;;;4267594;27;20053;-60
2023/12/18 08:06:51;;;;;;;24.15;14.10;;;6.00;99.90;;;;;;4249925;27;20101;-60
2023/12/18 08:08:55;;;;;;;18.50;13.75;;;6.00;99.90;;;;;;4268140;27;20478;-60
2023/12/18 08:10:57;;;;;;;14.43;10.55;;;6.00;99.90;;;;;;4267978;27;20092;-62
2023/12/18 08:12:59;;;;;;;15.60;10.57;;;5.90;99.90;;;;;;4268740;27;20038;-65
2023/12/18 08:15:02;;;;;;;16.83;12.05;;;6.10;99.90;;;;;;4251531;27;20047;-66
2023/12/18 08:17:04;;;;;;;16.88;11.73;;;6.10;99.90;;;;;;4269465;27;20049;-60
2023/12/18 08:19:06;;;;;;;16.27;11.23;;;6.10;99.90;;;;;;4268406;27;20499;-61
2023/12/18 08:21:11;;;;;;;18.38;11.32;;;6.10;99.90;;;;;;4267965;27;20046;-60
2023/12/18 08:23:15;;;;;;;15.50;11.02;;;6.10;99.90;;;;;;4267615;27;20121;-60
2023/12/18 08:25:17;;;;;;;15.32;11.23;;;6.30;99.90;;;;;;4249275;27;20074;-60
2023/12/18 08:27:19;;;;;;;14.70;11.40;;;6.10;99.90;;;;;;4268128;27;20046;-61
2023/12/18 08:29:21;;;;;;;15.82;12.10;;;6.10;99.90;;;;;;4267533;27;20465;-61
2023/12/18 08:31:23;;;;;;;14.43;11.45;;;5.90;99.90;;;;;;4267397;27;20068;-60
2023/12/18 08:33:25;;;;;;;15.32;11.13;;;5.60;99.90;;;;;;4267196;27;20045;-60
2023/12/18 08:35:28;;;;;;;18.38;10.30;;;5.50;99.90;;;;;;4266845;27;20051;-65
2023/12/18 08:37:30;;;;;;;15.75;11.55;;;5.50;99.90;;;;;;4267499;27;20049;-61
2023/12/18 08:39:33;;;;;;;16.25;11.20;;;5.70;99.90;;;;;;4267712;27;20039;-61
2023/12/18 08:41:37;;;;;;;16.35;11.95;;;5.70;99.90;;;;;;4267205;27;20042;-60
2023/12/18 08:43:39;;;;;;;14.60;11.05;;;5.50;99.90;;;;;;4267334;27;20442;-60
2023/12/18 08:45:42;;;;;;;16.75;11.95;;;5.50;99.90;;;;;;4267365;27;20046;-61
2023/12/18 08:47:46;;;;;;;17.02;10.38;;;5.70;99.90;;;;;;4267458;27;20053;-62
2023/12/18 08:49:48;;;;;;;12.63;10.18;;;5.70;99.90;;;;;;4269098;27;20158;-61
2023/12/18 08:51:50;;;;;;;17.58;10.50;;;5.90;99.90;;;;;;4268781;27;20073;-61
2023/12/18 08:53:54;;;;;;;15.70;9.48;;;5.80;99.90;;;;;;4268129;27;20046;-61
2023/12/18 08:55:58;;;;;;;14.18;9.85;;;5.90;99.90;;;;;;4268652;27;20046;-61
2023/12/18 08:58:00;;;;;;;16.25;9.65;;;5.90;99.90;;;;;;4269276;27;20043;-64
2023/12/18 09:00:04;;;;;;;15.00;9.93;;;6.00;99.90;;;;;;4269330;27;20043;-61
2023/12/18 09:02:07;;;;;;;12.07;8.15;;;6.10;99.90;;;;;;4267877;27;20103;-61
2023/12/18 09:04:09;;;;;;;13.95;9.40;;;6.00;99.90;;;;;;4267526;27;20050;-60
2023/12/18 09:06:12;;;;;;;14.75;10.07;;;6.00;99.90;;;;;;4267484;27;20053;-61
2023/12/18 09:08:14;;;;;;;12.82;9.63;;;6.20;99.90;;;;;;4267507;27;20092;-61
2023/12/18 09:10:17;;;;;;;13.23;10.60;;;6.10;99.90;;;;;;4267504;27;20054;-60
2023/12/18 09:12:21;;;;;;;15.23;10.30;;;6.00;99.90;;;;;;4249152;27;20423;-60
2023/12/18 09:14:23;;;;;;;14.60;10.02;;;6.20;99.90;;;;;;4267303;27;20374;-60
2023/12/18 09:16:25;;;;;;;15.82;9.65;;;6.20;99.90;;;;;;4266615;27;20049;-60
2023/12/18 09:18:27;;;;;;;12.60;9.65;;;6.10;99.90;;;;;;4266744;27;20133;-60
2023/12/18 09:20:30;;;;;;;15.18;10.23;;;6.00;99.70;;;;;;4266582;27;20050;-60
2023/12/18 09:22:32;;;;;;;15.23;10.77;;;6.10;99.90;;;;;;4266546;27;20039;-61
2023/12/18 09:24:34;;;;;;;11.32;8.73;;;6.00;99.60;;;;;;4266705;27;20049;-61
2023/12/18 09:26:36;;;;;;;14.07;9.27;;;6.00;99.90;;;;;;4266447;27;20038;-60
2023/12/18 09:28:39;;;;;;;11.00;7.78;;;6.00;99.90;;;;;;4248097;27;20062;-61
2023/12/18 09:30:42;;;;;;;11.88;8.18;;;6.10;99.90;;;;;;4266062;27;20130;-60
2023/12/18 09:32:45;;;;;;;16.83;10.73;;;6.20;99.90;;;;;;4266472;27;20046;-60
2023/12/18 09:34:47;;;;;;;11.50;8.45;;;6.10;99.60;;;;;;4266439;27;20047;-60
2023/12/18 09:36:50;;;;;;;16.90;10.15;;;6.00;99.90;;;;;;4266200;27;20429;-61
2023/12/18 09:38:52;;;;;;;11.23;8.95;;;6.00;99.90;;;;;;4248136;27;20347;-60
2023/12/18 09:40:54;;;;;;;13.30;9.07;;;6.10;99.90;;;;;;4266438;27;20049;-60
2023/12/18 09:42:56;;;;;;;13.10;9.98;;;6.20;99.90;;;;;;4266294;27;20059;-60
2023/12/18 09:45:02;;;;;;;13.45;9.75;;;6.00;99.40;;;;;;4265913;27;20038;-62
2023/12/18 09:47:06;;;;;;;12.57;9.00;;;5.90;99.80;;;;;;4266146;27;20039;-63
2023/12/18 09:49:09;;;;;;;11.38;6.25;;;5.70;99.60;;;;;;4247758;27;20047;-61
2023/12/18 09:51:17;;;;;;;14.60;9.70;;;5.80;99.90;;;;;;4266253;27;20054;-61
2023/12/18 09:53:21;;;;;;;16.35;10.32;;;5.90;99.90;;;;;;4266193;27;20046;-60
2023/12/18 09:55:24;;;;;;;12.60;9.37;;;5.80;99.90;;;;;;4265951;27;20050;-60
2023/12/18 09:57:27;;;;;;;14.93;9.70;;;5.60;99.80;;;;;;4265816;27;20982;-60
2023/12/18 09:59:30;;;;;;;17.92;10.57;;;5.60;99.90;;;;;;4265591;27;20410;-61
2023/12/18 10:01:36;;;;;;;13.32;8.90;;;5.40;99.50;;;;;;4266028;27;20409;-61
2023/12/18 10:03:38;;;;;;;15.25;9.23;;;5.50;99.90;;;;;;4265871;27;20050;-60
2023/12/18 10:05:42;;;;;;;11.05;8.30;;;5.70;99.90;;;;;;4265875;27;20047;-61
2023/12/18 10:07:45;;;;;;;11.52;8.77;;;5.70;99.90;;;;;;4266096;27;20042;-61
2023/12/18 10:09:49;;;;;;;10.60;8.60;;;5.70;99.60;;;;;;4265973;27;20062;-61
2023/12/18 10:11:51;;;;;;;18.25;9.48;;;5.50;99.20;;;;;;4265921;27;20046;-60
2023/12/18 10:13:55;;;;;;;11.00;7.87;;;5.60;99.50;;;;;;4265495;27;20051;-60
2023/12/18 10:15:58;;;;;;;11.82;8.93;;;5.70;99.60;;;;;;4265779;27;20493;-61
2023/12/18 10:18:03;;;;;;;11.43;8.75;;;5.70;99.50;;;;;;4265871;27;20050;-60
2023/12/18 10:20:07;;;;;;;11.43;9.70;;;5.60;98.70;;;;;;4265693;27;20398;-60
2023/12/18 10:22:09;;;;;;;7.78;6.75;;;5.60;99.20;;;;;;4265770;27;20095;-60
2023/12/18 10:24:11;;;;;;;11.32;9.10;;;5.70;99.90;;;;;;4265290;27;20078;-60
2023/12/18 10:26:14;;;;;;;11.45;9.35;;;5.60;98.90;;;;;;4265403;27;20043;-61
2023/12/18 10:28:17;;;;;;;13.05;9.45;;;5.60;99.30;;;;;;4265198;27;20470;-60
2023/12/18 10:30:19;;;;;;;11.98;8.57;;;5.60;99.10;;;;;;4265346;27;20038;-61
2023/12/18 10:32:23;;;;;;;12.52;9.35;;;5.70;99.40;;;;;;4265604;27;20055;-61